Aviation Digital Data Service (ADDS)

Output produced by METARs form (1337 UTC 26 May 2018)
found at http://www.aviationweather.gov/adds/metars/
 
YPAD 261300Z 04011KT CAVOK 20/06 Q1018 NOSIG
TAF YPAD 261126Z 2612/2718 03012KT CAVOK 
     FM262200 36014G30KT 9999 -RA SCT040 
     FM270400 02014KT 9999 -RA SCT040
       
YABA 261300Z AUTO 30009KT 9999 // BKN042 13/// Q1009
YMAY 261300Z AUTO 00000KT 9999 // NCD 07/06 Q1027
YBAS 261300Z AUTO 07005KT 9999 // NCD 17/07 Q1018 RF00.0/000.0
TAF YBAS 261111Z 2612/2712 02008KT CAVOK 
     FM270200 33008KT CAVOK
       
YAMB 261300Z AUTO 09001KT 9999 // SCT061 BKN074 15/10 Q1026
TAF YAMB 261001Z 2612/2706 20005KT 9999 SCT030 
     FM270000 13010KT 9999 SCT040
       
YARG 261300Z AUTO 00000KT 9999 // NCD 24/05 Q1014
YMAV 261300Z AUTO 01006KT 9999 // NCD 12/09 Q1024 RF00.0/000.0
TAF AMD YMAV 261246Z 2613/2712 02005KT CAVOK 
     FM270000 01014KT CAVOK
       
YAYE 261300Z AUTO 09007KT 9999 // NCD 21/03 Q1017
YLEC 261300Z AUTO 02001KT //// // ////// 18/05 Q1020
YLHI 261300Z AUTO 17003KT 9999 // BKN063 16/10 Q1028
TAF YLHI 261130Z 2612/2712 15010KT 9999 -SHRA SCT025 BKN040
       
YLIS 261330Z AUTO 36001KT 2600 // OVC068 10/08 Q1027
YLRE 261300Z AUTO 11008KT 9999 // NCD 17/08 Q1021
YBNA 261300Z AUTO 06005KT 9999 // SCT047 SCT056 OVC069 17/14 Q1027
YBWX 261300Z AUTO 18019KT //// // ////// 23/15 Q1016
YBDV 261300Z AUTO 07006KT //// // ////// 21/09 Q1019
YBAS 261300Z AUTO 07005KT 9999 // NCD 17/07 Q1018 RF00.0/000.0
TAF YBAS 261111Z 2612/2712 02008KT CAVOK 
     FM270200 33008KT CAVOK
       
YBBN 261300Z 15006KT 9999 -RA FEW022 BKN060 17/13 Q1026 INTER 1300/1330 4000 SHRA BKN015
TAF AMD YBBN 261109Z 2612/2718 19007KT 9999 -SHRA SCT030 
     FM270000 13012KT 9999 -SHRA SCT035 
     FM271000 19007KT 9999 -SHRA SCT030 INTER 2612/2614 4000 SHRA BKN015 INTER 2706/2712 3000 SHRA BKN012
       
YBCG 261300Z AUTO 20010KT 9999 // OVC073 16/14 Q1026 RF00.0/000.6
TAF AMD YBCG 261110Z 2612/2712 21008KT 9999 -SHRA SCT030 
     FM270100 18010KT 9999 -SHRA SCT040 
     FM270900 20007KT 9999 -SHRA SCT030 INTER 2612/2614 4000 SHRA BKN015 INTER 2706/2712 3000 SHRA BKN012
       
YBCS 261300Z 17011KT 9999 FEW025 SCT040 22/19 Q1017 NOSIG
TAF AMD YBCS 260935Z 2610/2712 16012KT 9999 -SHRA FEW025 SCT045 
     FM270000 13017KT 9999 -SHRA FEW025 SCT050 
     FM270800 16012KT 9999 -SHRA FEW025 SCT045 INTER 2618/2624 4000 -SHRA BKN018
       
YBCV 261300Z AUTO 10007KT 9999 // NCD 18/06 Q1024
YBDV 261300Z AUTO 07006KT //// // ////// 21/09 Q1019
YBHI 261300Z AUTO 03008KT 9999 // NCD 16/06 Q1023
YBHM 261300Z AUTO 14025KT 9999 // SCT024 BKN041 22/19 Q1020
TAF YBHM 261122Z 2612/2624 14025KT 9999 -SHRA SCT020 BKN030 INTER 2612/2700 3000 SHRA BKN012
       
YBMA 261300Z AUTO 18005KT 9999 // NCD 18/11 Q1018
TAF YBMA 260958Z 2612/2624 10006KT CAVOK
       
YBMK 261300Z AUTO 17009KT 9999 // BKN027 BKN034 21/17 Q1021
YBNA 261300Z AUTO 06005KT 9999 // SCT047 SCT056 OVC069 17/14 Q1027
YBOK 261300Z AUTO 13008KT 9999 // SCT066 13/09 Q1027
YBPN 261300Z AUTO 17008KT 9999 // SCT029 SCT035 BKN041 20/17 Q1020
YBRK 261300Z AUTO 12008KT 9999 // NCD 18/12 Q1023
TAF YBRK 261123Z 2612/2712 13008KT 9999 SCT025 
     FM262300 12014KT 9999 SCT030 
     FM270800 13008KT 9999 SCT025
       
YBRM 261300Z AUTO 24005KT 9999 // NCD 23/21 Q1014
TAF YBRM 261100Z 2612/2712 VRB03KT CAVOK 
     FM261600 VRB03KT 9999 BKN008 
     FM270100 16008KT CAVOK 
     FM270600 23008KT CAVOK 
     PROB30 2618/2624 0300 FG
       
YBTL 261300Z AUTO 14008KT 9999 // NCD 21/16 Q1019
TAF YBTL 261107Z 2612/2712 15008KT 9999 FEW030 
     FM270100 09017KT 9999 SCT035 
     FM270900 13012KT 9999 FEW030
       
YBUD 261300Z AUTO 20006KT 9999 // SCT070 16/14 Q1025
YBWP 261300Z AUTO 11010KT 9999 // NCD 24/19 Q1013
YBWX 261300Z AUTO 18019KT //// // ////// 23/15 Q1016
YBBN 261300Z 15006KT 9999 -RA FEW022 BKN060 17/13 Q1026 INTER 1300/1330 4000 SHRA BKN015
TAF AMD YBBN 261109Z 2612/2718 19007KT 9999 -SHRA SCT030 
     FM270000 13012KT 9999 -SHRA SCT035 
     FM271000 19007KT 9999 -SHRA SCT030 INTER 2612/2614 4000 SHRA BKN015 INTER 2706/2712 3000 SHRA BKN012
       
YBHI 261300Z AUTO 03008KT 9999 // NCD 16/06 Q1023
YBRM 261300Z AUTO 24005KT 9999 // NCD 23/21 Q1014
TAF YBRM 261100Z 2612/2712 VRB03KT CAVOK 
     FM261600 VRB03KT 9999 BKN008 
     FM270100 16008KT CAVOK 
     FM270600 23008KT CAVOK 
     PROB30 2618/2624 0300 FG
       
YBUD 261300Z AUTO 20006KT 9999 // SCT070 16/14 Q1025
YBCS 261300Z 17011KT 9999 FEW025 SCT040 22/19 Q1017 NOSIG
TAF AMD YBCS 260935Z 2610/2712 16012KT 9999 -SHRA FEW025 SCT045 
     FM270000 13017KT 9999 -SHRA FEW025 SCT050 
     FM270800 16012KT 9999 -SHRA FEW025 SCT045 INTER 2618/2624 4000 -SHRA BKN018
       
YSCB 261300Z AUTO 34004KT 9999 // NCD 03/03 Q1029
TAF AMD YSCB 261130Z 2612/2712 28006KT CAVOK 
     FM261400 VRB03KT 9999 FEW010 
     FM270000 30008KT CAVOK 
     FM270900 05005KT CAVOK 
     PROB30 2616/2622 0500 FZFG BKN001 
     PROB30 2622/2624 0500 FG SCT003
       
YCAR 261300Z AUTO 18008KT 9999 // NCD 20/15 Q1018
YCAS 261300Z AUTO 18001KT //// // ////// 11/09 Q1027
YCDU 261300Z AUTO 01015KT 9999 // BKN110 21/07 Q1014
YCAR 261300Z AUTO 18008KT 9999 // NCD 20/15 Q1018
YCAS 261300Z AUTO 18001KT //// // ////// 11/09 Q1027
YCBA 261300Z AUTO 06005KT 9999 // NCD 13/06 Q1026
YCBB 261300Z AUTO 23005KT 9999 // NCD 12/03 Q1028
YCBP 261300Z AUTO 07012KT 9999 // NCD 18/06 Q1017
YCCY 261300Z AUTO 13010KT //// // ////// 24/10 Q1017
YCDU 261300Z AUTO 01015KT 9999 // BKN110 21/07 Q1014
YCFS 261300Z AUTO 29004KT 9999 // OVC061 15/13 Q1028
TAF YCFS 261130Z 2612/2712 30005KT 9999 BKN060 
     FM261700 21005KT 9999 FEW060 
     FM270100 15010KT 9999 SCT060 
     FM270800 24007KT 9999 SCT050
       
YCIN 261300Z AUTO 26004KT 9999 // NCD 20/16 Q1013
TAF AMD YCIN 261249Z 2614/2702 21005KT CAVOK 
     FM270000 16005KT CAVOK 
     PROB30 2618/2624 0300 FG BKN001
       
YCNM 261300Z AUTO 12005KT //// // ////// 10/02 Q1027
YCOM 261300Z AUTO 00000KT 9999 // NCD M02/M05 Q1029
YBCV 261300Z AUTO 10007KT 9999 // NCD 18/06 Q1024
YCCY 261300Z AUTO 13010KT //// // ////// 24/10 Q1017
YCBA 261300Z AUTO 06005KT 9999 // NCD 13/06 Q1026
YCBP 261300Z AUTO 07012KT 9999 // NCD 18/06 Q1017
YBCG 261300Z AUTO 20010KT 9999 // OVC073 16/14 Q1026 RF00.0/000.6
TAF AMD YBCG 261110Z 2612/2712 21008KT 9999 -SHRA SCT030 
     FM270100 18010KT 9999 -SHRA SCT040 
     FM270900 20007KT 9999 -SHRA SCT030 INTER 2612/2614 4000 SHRA BKN015 INTER 2706/2712 3000 SHRA BKN012
       
YCOM 261300Z AUTO 00000KT 9999 // NCD M02/M05 Q1029
YCBB 261300Z AUTO 23005KT 9999 // NCD 12/03 Q1028
YCNM 261300Z AUTO 12005KT //// // ////// 10/02 Q1027
YCIN 261300Z AUTO 26004KT 9999 // NCD 20/16 Q1013
TAF AMD YCIN 261249Z 2614/2702 21005KT CAVOK 
     FM270000 16005KT CAVOK 
     PROB30 2618/2624 0300 FG BKN001
       
YPDN 261300Z 17004KT CAVOK 26/21 Q1013
TAF YPDN 261111Z 2612/2718 14005KT CAVOK 
     FM262100 10005KT 9999 FEW015 
     FM270000 09010KT CAVOK 
     FM270600 02008KT CAVOK 
     FM271000 VRB03KT CAVOK
       
YDBY 261300Z AUTO 26006KT 240V300 9999 // NCD 21/17 Q1014
YSDU 261300Z AUTO 11006KT 9999 // NCD 10/04 Q1028
TAF YSDU 261055Z 2612/2706 13008KT CAVOK 
     FM270000 09010KT CAVOK
       
YEML 261300Z AUTO 09006KT 9999 // BKN057 18/13 Q1023
YESP 261300Z AUTO 30010KT 9999 // SCT034 13/11 Q1009
YFRT 261300Z AUTO 33007KT //// // ////// 16/15 Q1012
TAF YFRT 261251Z 2614/2702 30010KT CAVOK
       
YGEL 261300Z AUTO 20002KT 9999 // SCT040 BKN054 17/12 Q1017
TAF AMD YGEL 261041Z 2612/2706 24008KT 9999 -SHRA SCT030 
     FM270200 24014KT 9999 -SHRA SCT030 INTER 2617/2706 5000 SHRA SCT015 BKN025
       
YGLA 261300Z AUTO 15008KT 9999 // NCD 19/13 Q1023
TAF YGLA 261123Z 2612/2624 15010KT 9999 -SHRA FEW015 SCT025
       
YPGV 261300Z AUTO 13006KT 9999 // NCD 24/22 Q1013
TAF YPGV 261219Z 2614/2702 12006KT 9999 SCT020 
     FM262300 10014KT 9999 SCT020
       
YGFN 261300Z AUTO 21003KT 9999 // SCT065 14/11 Q1028
YGTH 261300Z AUTO 09005KT 9999 // NCD 11/05 Q1025
YGTE 261300Z AUTO 13004KT 9999 // NCD 23/21 Q1014
YBHM 261300Z AUTO 14025KT 9999 // SCT024 BKN041 22/19 Q1020
TAF YBHM 261122Z 2612/2624 14025KT 9999 -SHRA SCT020 BKN030 INTER 2612/2700 3000 SHRA BKN012
       
YMHB 261300Z 31006KT 9999 FEW035 05/04 Q1026
TAF YMHB 261106Z 2612/2712 33010KT 9999 FEW040 
     FM270200 36010KT CAVOK
       
YHID 261300Z AUTO 13015KT 9999 // SCT023 OVC048 27/22 Q1011
TAF AMD YHID 260937Z 2609/2712 13014KT 9999 SCT025 SCT045 
     FM270000 13018G28KT 9999 SCT025 SCT045 
     FM270900 13014KT 9999 SCT025 SCT045
       
YHUG 261300Z AUTO 11007KT 9999 // NCD 19/10 Q1019
YPKG 261300Z AUTO 30007KT 9999 // BKN019 OVC025 14/14 Q1013
TAF AMD YPKG 261100Z 2612/2712 27014KT 9999 BKN030 
     FM261800 27008KT 9999 BKN010 
     FM270100 28012KT 9999 BKN035
       
YKRY 261300Z AUTO 12005KT 9999 // BKN027 OVC047 OVC059 14/11 Q1027
YKRY 261300Z AUTO 12005KT 9999 // BKN027 OVC047 OVC059 14/11 Q1027
YPKU 261300Z AUTO 00000KT 9999 // NCD 20/14 Q1013
TAF YPKU 261249Z 2614/2702 VRB03KT CAVOK 
     FM270100 07006KT CAVOK
       
YMLT 261300Z AUTO 00000KT 9999 // BKN024 03/01 Q1027 RF00.0/000.0
TAF AMD YMLT 261143Z 2611/2712 VRB03KT 9999 BKN025 
     FM261300 VRB03KT 9999 BKN020 
     FM270000 34008KT 9999 SCT020
       
YPLM 261300Z AUTO 21008KT 9999 // NCD 16/13 Q1018
TAF YPLM 261059Z 2612/2712 18012KT CAVOK 
     FM270200 14012KT CAVOK
       
YLEC 261300Z AUTO 02001KT //// // ////// 18/05 Q1020
YLIS 261330Z AUTO 36001KT 2600 // OVC068 10/08 Q1027
YLEC 261300Z AUTO 02001KT //// // ////// 18/05 Q1020
YLHI 261300Z AUTO 17003KT 9999 // BKN063 16/10 Q1028
TAF YLHI 261130Z 2612/2712 15010KT 9999 -SHRA SCT025 BKN040
       
YLIS 261330Z AUTO 36001KT 2600 // OVC068 10/08 Q1027
YLRE 261300Z AUTO 11008KT 9999 // NCD 17/08 Q1021
YLRE 261300Z AUTO 11008KT 9999 // NCD 17/08 Q1021
YBMK 261300Z AUTO 17009KT 9999 // BKN027 BKN034 21/17 Q1021
YMAV 261300Z AUTO 01006KT 9999 // NCD 12/09 Q1024 RF00.0/000.0
TAF AMD YMAV 261246Z 2613/2712 02005KT CAVOK 
     FM270000 01014KT CAVOK
       
YMAY 261300Z AUTO 00000KT 9999 // NCD 07/06 Q1027
YMDG 261300Z AUTO 14003KT 9999 // NCD 06/02 Q1029
YMEK 261300Z AUTO 23009KT 9999 // BKN042 OVC058 16/10 Q1018
YMEN 261300Z AUTO 36001KT 9999 // NCD 11/09 Q1025
YMER 261300Z AUTO 21004KT 8000 // NCD 06/05 Q1028
YMHB 261300Z 31006KT 9999 FEW035 05/04 Q1026
TAF YMHB 261106Z 2612/2712 33010KT 9999 FEW040 
     FM270200 36010KT CAVOK
       
YMIA 261300Z AUTO 06005KT 9999 // NCD 15/06 Q1022
YMLT 261300Z AUTO 00000KT 9999 // BKN024 03/01 Q1027 RF00.0/000.0
TAF AMD YMLT 261143Z 2611/2712 VRB03KT 9999 BKN025 
     FM261300 VRB03KT 9999 BKN020 
     FM270000 34008KT 9999 SCT020
       
YMML 261300Z 36008KT CAVOK 12/07 Q1025 FM1300 MOD TURB BLW 5000FT
TAF YMML 261102Z 2612/2718 36012KT CAVOK 
     FM270000 01015G25KT CAVOK 
     FM270800 01014KT CAVOK
       
YMOR 261300Z AUTO 09009KT 9999 // NCD 12/01 Q1027
YMTG 261300Z AUTO 03013KT 9999 // NCD 13/06 Q1021
YMEK 261300Z AUTO 23009KT 9999 // BKN042 OVC058 16/10 Q1018
YMEN 261300Z AUTO 36001KT 9999 // NCD 11/09 Q1025
YMML 261300Z 36008KT CAVOK 12/07 Q1025 FM1300 MOD TURB BLW 5000FT
TAF YMML 261102Z 2612/2718 36012KT CAVOK 
     FM270000 01015G25KT CAVOK 
     FM270800 01014KT CAVOK
       
YMER 261300Z AUTO 21004KT 8000 // NCD 06/05 Q1028
YMIA 261300Z AUTO 06005KT 9999 // NCD 15/06 Q1022
YMOR 261300Z AUTO 09009KT 9999 // NCD 12/01 Q1027
YMTG 261300Z AUTO 03013KT 9999 // NCD 13/06 Q1021
YBMA 261300Z AUTO 18005KT 9999 // NCD 18/11 Q1018
TAF YBMA 260958Z 2612/2624 10006KT CAVOK
       
YMDG 261300Z AUTO 14003KT 9999 // NCD 06/02 Q1029
YNBR 261300Z AUTO 07004KT 020V120 9999 // NCD 09/00 Q1027
YNAR 261300Z AUTO 08005KT //// // ////// 13/07 Q1026
YNWN 261300Z AUTO 23005KT 9999 // NCD 13/06 Q1018
YNTN 261300Z AUTO 15007KT 9999 // NCD 24/14 Q1015
YSNW 261300Z AUTO 29003KT 9999 // NCD 09/07 Q1027
YBOK 261300Z AUTO 13008KT 9999 // SCT066 13/09 Q1027
YOLD 261300Z AUTO 07005KT 9999 // NCD 18/05 Q1019
YPAD 261300Z 04011KT CAVOK 20/06 Q1018 NOSIG
TAF YPAD 261126Z 2612/2718 03012KT CAVOK 
     FM262200 36014G30KT 9999 -RA SCT040 
     FM270400 02014KT 9999 -RA SCT040
       
YPBO 261300Z AUTO 18002KT 9999 // NCD 15/13 Q1018
YPCC 261300Z AUTO 13017KT 9999 // SCT017 SCT034 OVC074 27/24 Q1012
TAF YPCC 261100Z 2612/2712 13020G30KT 9999 -SHRA SCT020 INTER 2612/2712 3000 SHRA BKN010
       
YPDN 261300Z 17004KT CAVOK 26/21 Q1013
TAF YPDN 261111Z 2612/2718 14005KT CAVOK 
     FM262100 10005KT 9999 FEW015 
     FM270000 09010KT CAVOK 
     FM270600 02008KT CAVOK 
     FM271000 VRB03KT CAVOK
       
YPEA 261300Z AUTO 35005KT 9999 // OVC041 13/11 Q1015
TAF AMD YPEA 261134Z 2612/2706 26008KT 9999 SCT040 
     FM261400 29008KT 9999 -SHRA SCT025 BKN040 
     FM270300 27016G26KT 9999 -SHRA SCT025 BKN040 INTER 2614/2706 5000 SHRA SCT020
       
YPGV 261300Z AUTO 13006KT 9999 // NCD 24/22 Q1013
TAF YPGV 261219Z 2614/2702 12006KT 9999 SCT020 
     FM262300 10014KT 9999 SCT020
       
YPJT 261300Z AUTO 27005KT 9999 // SCT038 BKN044 OVC052 16/12 Q1014
TAF AMD YPJT 261134Z 2612/2706 26010KT 9999 -SHRA SCT025 BKN040 
     FM270200 27018G28KT 9999 -SHRA SCT025 BKN040 INTER 2613/2706 5000 SHRA SCT020
       
YPKG 261300Z AUTO 30007KT 9999 // BKN019 OVC025 14/14 Q1013
TAF AMD YPKG 261100Z 2612/2712 27014KT 9999 BKN030 
     FM261800 27008KT 9999 BKN010 
     FM270100 28012KT 9999 BKN035
       
YPKU 261300Z AUTO 00000KT 9999 // NCD 20/14 Q1013
TAF YPKU 261249Z 2614/2702 VRB03KT CAVOK 
     FM270100 07006KT CAVOK
       
YPLM 261300Z AUTO 21008KT 9999 // NCD 16/13 Q1018
TAF YPLM 261059Z 2612/2712 18012KT CAVOK 
     FM270200 14012KT CAVOK
       
YPMQ 261330Z AUTO 27002KT 2300 // BKN045 11/10 Q1028
YPPD 261300Z AUTO 27006KT 9999 // NCD 22/19 Q1014
TAF YPPD 261100Z 2612/2712 24008KT CAVOK 
     FM261800 15010KT CAVOK
       
YPPH 261300Z 30004KT 9999 BKN043 13/10 Q1014 FM1345 26010KT 9999 -SHRA SCT025 BKN040 INTER 1345/1600 5000 SHRA SCT020
TAF AMD YPPH 261134Z 2612/2718 27010KT 9999 -SHRA SCT025 BKN040 
     FM270200 27018G28KT 9999 -SHRA SCT025 BKN040 
     FM270700 24018G28KT 9999 -SHRA BKN025 
     FM271300 21010KT 9999 SCT025 BKN040 INTER 2614/2707 5000 SHRA SCT020 INTER 2707/2712 24020G35KT 3000 SHRA BKN015
       
YPTN 261300Z AUTO 13005KT 9999 // NCD 20/15 Q1014
TAF YPTN 261111Z 2612/2712 10008KT CAVOK
       
YPWR 261300Z AUTO 04009KT 9999 // NCD 18/06 Q1019
TAF YPWR 261104Z 2612/2706 02010KT CAVOK 
     FM261500 01010KT 9999 -RA NSC 
     FM270300 36015KT 9999 -RA SCT040
       
YPXM 261330Z AUTO 12012KT 9999 // BKN013 BKN020 26/22 Q1014
TAF YPXM 261100Z 2612/2712 12012KT 9999 -SHRA BKN012
       
YPBO 261300Z AUTO 18002KT 9999 // NCD 15/13 Q1018
YPEA 261300Z AUTO 35005KT 9999 // OVC041 13/11 Q1015
TAF AMD YPEA 261134Z 2612/2706 26008KT 9999 SCT040 
     FM261400 29008KT 9999 -SHRA SCT025 BKN040 
     FM270300 27016G26KT 9999 -SHRA SCT025 BKN040 INTER 2614/2706 5000 SHRA SCT020
       
YPPH 261300Z 30004KT 9999 BKN043 13/10 Q1014 FM1345 26010KT 9999 -SHRA SCT025 BKN040 INTER 1345/1600 5000 SHRA SCT020
TAF AMD YPPH 261134Z 2612/2718 27010KT 9999 -SHRA SCT025 BKN040 
     FM270200 27018G28KT 9999 -SHRA SCT025 BKN040 
     FM270700 24018G28KT 9999 -SHRA BKN025 
     FM271300 21010KT 9999 SCT025 BKN040 INTER 2614/2707 5000 SHRA SCT020 INTER 2707/2712 24020G35KT 3000 SHRA BKN015
       
YPJT 261300Z AUTO 27005KT 9999 // SCT038 BKN044 OVC052 16/12 Q1014
TAF AMD YPJT 261134Z 2612/2706 26010KT 9999 -SHRA SCT025 BKN040 
     FM270200 27018G28KT 9999 -SHRA SCT025 BKN040 INTER 2613/2706 5000 SHRA SCT020
       
YPPD 261300Z AUTO 27006KT 9999 // NCD 22/19 Q1014
TAF YPPD 261100Z 2612/2712 24008KT CAVOK 
     FM261800 15010KT CAVOK
       
YPMQ 261330Z AUTO 27002KT 2300 // BKN045 11/10 Q1028
YBPN 261300Z AUTO 17008KT 9999 // SCT029 SCT035 BKN041 20/17 Q1020
YSRI 261300Z AUTO 00000KT 9999 // NCD 09/08 Q1028
TAF AMD YSRI 261136Z 2612/2712 VRB02KT CAVOK 
     FM261700 VRB02KT 0500 FG BKN001 
     BECMG 2622/2623 VRB02KT 9999 FEW010 
     BECMG 2700/2701 05007KT CAVOK 
     FM271000 VRB03KT CAVOK 
     PROB30 2615/2616 2000 BR 
     PROB30 2616/2624 0100 FG
       
YRMD 261300Z AUTO 11008KT 9999 // NCD 19/11 Q1018
YBRK 261300Z AUTO 12008KT 9999 // NCD 18/12 Q1023
TAF YBRK 261123Z 2612/2712 13008KT 9999 SCT025 
     FM262300 12014KT 9999 SCT030 
     FM270800 13008KT 9999 SCT025
       
YSCB 261300Z AUTO 34004KT 9999 // NCD 03/03 Q1029
TAF AMD YSCB 261130Z 2612/2712 28006KT CAVOK 
     FM261400 VRB03KT 9999 FEW010 
     FM270000 30008KT CAVOK 
     FM270900 05005KT CAVOK 
     PROB30 2616/2622 0500 FZFG BKN001 
     PROB30 2622/2624 0500 FG SCT003
       
YSDU 261300Z AUTO 11006KT 9999 // NCD 10/04 Q1028
TAF YSDU 261055Z 2612/2706 13008KT CAVOK 
     FM270000 09010KT CAVOK
       
YSNF 261300Z AUTO 17007KT 9999 // NCD 17/08 Q1025
TAF YSNF 261130Z 2612/2712 16010KT 9999 -SHRA SCT030 BKN050
       
YSNW 261300Z AUTO 29003KT 9999 // NCD 09/07 Q1027
YSRI 261300Z AUTO 00000KT 9999 // NCD 09/08 Q1028
TAF AMD YSRI 261136Z 2612/2712 VRB02KT CAVOK 
     FM261700 VRB02KT 0500 FG BKN001 
     BECMG 2622/2623 VRB02KT 9999 FEW010 
     BECMG 2700/2701 05007KT CAVOK 
     FM271000 VRB03KT CAVOK 
     PROB30 2615/2616 2000 BR 
     PROB30 2616/2624 0100 FG
       
YSSY 261300Z 29006KT CAVOK 15/12 Q1029
TAF YSSY 261105Z 2612/2718 29008KT CAVOK 
     FM270400 03010KT CAVOK 
     FM271100 29008KT CAVOK
       
YSTW 261300Z AUTO 10005KT 9999 // NCD 10/04 Q1028 RF00.0/000.0
TAF YSTW 261055Z 2612/2706 12005KT CAVOK 
     FM270200 18010KT CAVOK
       
YSWG 261300Z AUTO 07005KT 9999 // NCD 09/04 Q1027
YKRY 261300Z AUTO 12005KT 9999 // BKN027 OVC047 OVC059 14/11 Q1027
YSSY 261300Z 29006KT CAVOK 15/12 Q1029
TAF YSSY 261105Z 2612/2718 29008KT CAVOK 
     FM270400 03010KT CAVOK 
     FM271100 29008KT CAVOK
       
YSTW 261300Z AUTO 10005KT 9999 // NCD 10/04 Q1028 RF00.0/000.0
TAF YSTW 261055Z 2612/2706 12005KT CAVOK 
     FM270200 18010KT CAVOK
       
YTRE 261300Z AUTO 26004KT 9000 // NCD 11/11 Q1028
TAF YTRE 260648Z 2608/2620 11003KT 9999 SCT050 
     FM261200 27005KT 9999 SCT050 
     FM261800 29005KT 9999 FEW050
       
YTEF 261300Z AUTO 19008KT 9999 // SCT062 BKN073 BKN086 21/16 Q1015
YTNK 261300Z AUTO 11006KT 9999 // NCD 21/06 Q1017
TAF YTNK 261219Z 2614/2702 10006KT CAVOK 
     FM262300 07010KT CAVOK
       
YTEF 261300Z AUTO 19008KT 9999 // SCT062 BKN073 BKN086 21/16 Q1015
YTNK 261300Z AUTO 11006KT 9999 // NCD 21/06 Q1017
TAF YTNK 261219Z 2614/2702 10006KT CAVOK 
     FM262300 07010KT CAVOK
       
YTRE 261300Z AUTO 26004KT 9000 // NCD 11/11 Q1028
TAF YTRE 260648Z 2608/2620 11003KT 9999 SCT050 
     FM261200 27005KT 9999 SCT050 
     FM261800 29005KT 9999 FEW050
       
YPTN 261300Z AUTO 13005KT 9999 // NCD 20/15 Q1014
TAF YPTN 261111Z 2612/2712 10008KT CAVOK
       
YBTL 261300Z AUTO 14008KT 9999 // NCD 21/16 Q1019
TAF YBTL 261107Z 2612/2712 15008KT 9999 FEW030 
     FM270100 09017KT 9999 SCT035 
     FM270900 13012KT 9999 FEW030
       
YSWG 261300Z AUTO 07005KT 9999 // NCD 09/04 Q1027
YWGT 261300Z AUTO 21004KT 9999 // NCD 06/05 Q1027
TAF YWGT 260102Z 2602/2614 05006KT CAVOK 
     FM261200 10005KT CAVOK
       
YBWP 261300Z AUTO 11010KT 9999 // NCD 24/19 Q1013
YWHA 261300Z AUTO 01011KT 9999 // NCD 20/07 Q1018
YWLM 261330Z AUTO 00000KT 8000 // BKN003 BKN013 10/08 Q1028
TAF AMD YWLM 261326Z 2613/2712 VRB03KT CAVOK 
     FM261900 31006KT CAVOK 
     FM270400 06008KT CAVOK 
     PROB30 2613/2622 2000 BR
       
YPWR 261300Z AUTO 04009KT 9999 // NCD 18/06 Q1019
TAF YPWR 261104Z 2612/2706 02010KT CAVOK 
     FM261500 01010KT 9999 -RA NSC 
     FM270300 36015KT 9999 -RA SCT040